sensor_id;sensor_type;location;lat;lon;timestamp;pressure;altitude;pressure_sealevel;temperature;humidity
60337;BME280;46978;50.288;28.624;2023-01-28T00:00:50;99455.56;;;-3.86;100.00
60337;BME280;46978;50.288;28.624;2023-01-28T00:01:52;99454.70;;;-3.86;100.00
60337;BME280;46978;50.288;28.624;2023-01-28T00:02:54;99454.70;;;-3.86;100.00
60337;BME280;46978;50.288;28.624;2023-01-28T00:03:55;99454.77;;;-3.85;100.00
60337;BME280;46978;50.288;28.624;2023-01-28T00:04:57;99453.09;;;-3.84;100.00
60337;BME280;46978;50.288;28.624;2023-01-28T00:06:06;99458.16;;;-3.84;100.00
60337;BME280;46978;50.288;28.624;2023-01-28T00:07:07;99458.16;;;-3.84;100.00
60337;BME280;46978;50.288;28.624;2023-01-28T00:09:31;99453.85;;;-3.87;98.81
60337;BME280;46978;50.288;28.624;2023-01-28T00:10:32;99448.78;;;-3.87;98.72
60337;BME280;46978;50.288;28.624;2023-01-28T00:11:34;99458.92;;;-3.87;98.77
60337;BME280;46978;50.288;28.624;2023-01-28T00:12:35;99448.84;;;-3.85;98.89
60337;BME280;46978;50.288;28.624;2023-01-28T00:13:37;99449.70;;;-3.85;98.85
60337;BME280;46978;50.288;28.624;2023-01-28T00:14:39;99452.17;;;-3.86;98.70
60337;BME280;46978;50.288;28.624;2023-01-28T00:15:41;99449.64;;;-3.86;98.86
60337;BME280;46978;50.288;28.624;2023-01-28T00:16:42;99448.84;;;-3.85;98.94
60337;BME280;46978;50.288;28.624;2023-01-28T00:17:44;99448.84;;;-3.85;98.83
60337;BME280;46978;50.288;28.624;2023-01-28T00:18:45;99456.45;;;-3.85;98.80
60337;BME280;46978;50.288;28.624;2023-01-28T00:19:47;99447.95;;;-3.86;98.73
60337;BME280;46978;50.288;28.624;2023-01-28T00:20:58;99457.24;;;-3.86;98.75
60337;BME280;46978;50.288;28.624;2023-01-28T00:22:00;99451.19;;;-3.90;98.66
60337;BME280;46978;50.288;28.624;2023-01-28T00:23:02;99454.45;;;-3.92;98.86
60337;BME280;46978;50.288;28.624;2023-01-28T00:24:04;99450.24;;;-3.92;99.08
60337;BME280;46978;50.288;28.624;2023-01-28T00:25:06;99450.18;;;-3.93;98.90
60337;BME280;46978;50.288;28.624;2023-01-28T00:26:12;99456.92;;;-3.94;98.55
60337;BME280;46978;50.288;28.624;2023-01-28T00:27:15;99448.47;;;-3.94;98.39
60337;BME280;46978;50.288;28.624;2023-01-28T00:28:16;99456.86;;;-3.96;98.51
60337;BME280;46978;50.288;28.624;2023-01-28T00:29:18;99453.47;;;-3.96;98.58
60337;BME280;46978;50.288;28.624;2023-01-28T00:30:20;99458.48;;;-3.98;98.34
60337;BME280;46978;50.288;28.624;2023-01-28T00:31:23;99454.97;;;-4.01;97.82
60337;BME280;46978;50.288;28.624;2023-01-28T00:32:25;99457.38;;;-4.04;97.75
60337;BME280;46978;50.288;28.624;2023-01-28T00:33:27;99456.48;;;-4.05;97.86
60337;BME280;46978;50.288;28.624;2023-01-28T00:34:28;99457.24;;;-4.07;97.79
60337;BME280;46978;50.288;28.624;2023-01-28T00:35:30;99464.91;;;-4.06;97.84
60337;BME280;46978;50.288;28.624;2023-01-28T00:36:32;99457.38;;;-4.04;97.90
60337;BME280;46978;50.288;28.624;2023-01-28T00:37:34;99459.02;;;-4.05;98.00
60337;BME280;46978;50.288;28.624;2023-01-28T00:38:35;99467.45;;;-4.06;98.01
60337;BME280;46978;50.288;28.624;2023-01-28T00:39:37;99454.77;;;-4.06;98.01
60337;BME280;46978;50.288;28.624;2023-01-28T00:40:39;99457.30;;;-4.06;98.13
60337;BME280;46978;50.288;28.624;2023-01-28T00:41:41;99457.30;;;-4.06;98.26
60337;BME280;46978;50.288;28.624;2023-01-28T00:42:43;99453.95;;;-4.05;98.32
60337;BME280;46978;50.288;28.624;2023-01-28T00:43:44;99459.97;;;-4.03;98.30
60337;BME280;46978;50.288;28.624;2023-01-28T00:44:46;99457.44;;;-4.03;98.29
60337;BME280;46978;50.288;28.624;2023-01-28T00:45:48;99464.21;;;-4.02;98.32
60337;BME280;46978;50.288;28.624;2023-01-28T00:46:49;99455.03;;;-4.00;98.40
60337;BME280;46978;50.288;28.624;2023-01-28T00:47:51;99454.02;;;-4.03;98.16
60337;BME280;46978;50.288;28.624;2023-01-28T00:48:53;99453.28;;;-4.01;98.23
60337;BME280;46978;50.288;28.624;2023-01-28T00:49:54;99455.88;;;-3.99;98.32
60337;BME280;46978;50.288;28.624;2023-01-28T00:50:56;99453.34;;;-3.99;98.17
60337;BME280;46978;50.288;28.624;2023-01-28T00:51:58;99443.20;;;-3.99;98.27
60337;BME280;46978;50.288;28.624;2023-01-28T00:53:00;99450.02;;;-3.98;98.32
60337;BME280;46978;50.288;28.624;2023-01-28T00:54:01;99447.55;;;-3.97;98.38
60337;BME280;46978;50.288;28.624;2023-01-28T00:55:04;99446.72;;;-3.96;98.30
60337;BME280;46978;50.288;28.624;2023-01-28T00:56:07;99445.94;;;-3.94;98.17
60337;BME280;46978;50.288;28.624;2023-01-28T00:57:10;99442.30;;;-4.01;98.49
60337;BME280;46978;50.288;28.624;2023-01-28T00:58:11;99441.41;;;-4.02;98.59
60337;BME280;46978;50.288;28.624;2023-01-28T00:59:13;99449.89;;;-4.01;98.75
60337;BME280;46978;50.288;28.624;2023-01-28T01:00:16;99448.16;;;-4.02;98.96
60337;BME280;46978;50.288;28.624;2023-01-28T01:01:23;99448.16;;;-4.02;98.95
60337;BME280;46978;50.288;28.624;2023-01-28T01:02:25;99448.16;;;-4.02;99.03
60337;BME280;46978;50.288;28.624;2023-01-28T01:03:27;99448.28;;;-3.99;99.01
60337;BME280;46978;50.288;28.624;2023-01-28T01:04:28;99444.95;;;-3.98;99.02
60337;BME280;46978;50.288;28.624;2023-01-28T01:05:30;99441.53;;;-3.99;99.04
60337;BME280;46978;50.288;28.624;2023-01-28T01:06:35;99448.16;;;-4.02;99.24
60337;BME280;46978;50.288;28.624;2023-01-28T01:07:37;99447.30;;;-4.03;99.25
60337;BME280;46978;50.288;28.624;2023-01-28T01:08:39;99436.27;;;-4.03;99.36
60337;BME280;46978;50.288;28.624;2023-01-28T01:09:40;99441.34;;;-4.03;99.33
60337;BME280;46978;50.288;28.624;2023-01-28T01:10:42;99442.09;;;-4.06;99.34
60337;BME280;46978;50.288;28.624;2023-01-28T01:11:44;99441.21;;;-4.06;99.58
60337;BME280;46978;50.288;28.624;2023-01-28T01:12:46;99441.21;;;-4.06;99.53
60337;BME280;46978;50.288;28.624;2023-01-28T01:13:56;99433.61;;;-4.06;99.46
60337;BME280;46978;50.288;28.624;2023-01-28T01:14:58;99431.97;;;-4.06;99.48
60337;BME280;46978;50.288;28.624;2023-01-28T01:16:07;99439.44;;;-4.09;99.34
60337;BME280;46978;50.288;28.624;2023-01-28T01:17:15;99440.23;;;-4.10;99.39
60337;BME280;46978;50.288;28.624;2023-01-28T01:18:17;99442.83;;;-4.08;99.41
60337;BME280;46978;50.288;28.624;2023-01-28T01:19:18;99438.42;;;-4.12;99.19
60337;BME280;46978;50.288;28.624;2023-01-28T01:20:23;99442.70;;;-4.11;99.31
60337;BME280;46978;50.288;28.624;2023-01-28T01:21:27;99439.38;;;-4.10;99.15
60337;BME280;46978;50.288;28.624;2023-01-28T01:22:32;99442.70;;;-4.11;98.79
60337;BME280;46978;50.288;28.624;2023-01-28T01:23:34;99451.16;;;-4.11;98.83
60337;BME280;46978;50.288;28.624;2023-01-28T01:24:36;99447.83;;;-4.10;98.88
60337;BME280;46978;50.288;28.624;2023-01-28T01:25:39;99446.16;;;-4.09;98.91
60337;BME280;46978;50.288;28.624;2023-01-28T01:26:40;99451.29;;;-4.08;98.77
60337;BME280;46978;50.288;28.624;2023-01-28T01:27:43;99451.35;;;-4.06;98.74
60337;BME280;46978;50.288;28.624;2023-01-28T01:28:45;99447.96;;;-4.07;98.71
60337;BME280;46978;50.288;28.624;2023-01-28T01:29:46;99447.23;;;-4.04;98.75
60337;BME280;46978;50.288;28.624;2023-01-28T01:30:48;99452.30;;;-4.04;98.69
60337;BME280;46978;50.288;28.624;2023-01-28T01:31:50;99444.70;;;-4.04;98.63
60337;BME280;46978;50.288;28.624;2023-01-28T01:32:52;99445.55;;;-4.04;98.68
60337;BME280;46978;50.288;28.624;2023-01-28T01:33:53;99447.30;;;-4.03;98.75
60337;BME280;46978;50.288;28.624;2023-01-28T01:34:55;99447.36;;;-4.01;98.76
60337;BME280;46978;50.288;28.624;2023-01-28T01:35:57;99443.94;;;-4.02;98.63
60337;BME280;46978;50.288;28.624;2023-01-28T01:37:00;99444.83;;;-4.01;98.53
60337;BME280;46978;50.288;28.624;2023-01-28T01:38:01;99444.06;;;-3.99;98.63
60337;BME280;46978;50.288;28.624;2023-01-28T01:39:03;99444.19;;;-3.96;98.72
60337;BME280;46978;50.288;28.624;2023-01-28T01:40:06;99445.94;;;-3.94;98.73
60337;BME280;46978;50.288;28.624;2023-01-28T01:41:09;99438.39;;;-3.93;98.70
60337;BME280;46978;50.288;28.624;2023-01-28T01:42:12;99443.52;;;-3.91;98.74
60337;BME280;46978;50.288;28.624;2023-01-28T01:43:21;99437.69;;;-3.89;98.77
60337;BME280;46978;50.288;28.624;2023-01-28T01:44:58;99441.17;;;-3.87;98.67
60337;BME280;46978;50.288;28.624;2023-01-28T01:46:00;99437.02;;;-3.85;98.55
60337;BME280;46978;50.288;28.624;2023-01-28T01:47:02;99435.41;;;-3.83;98.42
60337;BME280;46978;50.288;28.624;2023-01-28T01:48:16;99437.15;;;-3.82;98.41
60337;BME280;46978;50.288;28.624;2023-01-28T01:49:24;99432.14;;;-3.80;98.32
60337;BME280;46978;50.288;28.624;2023-01-28T01:50:36;99434.67;;;-3.80;98.12
60337;BME280;46978;50.288;28.624;2023-01-28T01:51:39;99439.75;;;-3.80;98.13
60337;BME280;46978;50.288;28.624;2023-01-28T01:52:41;99432.08;;;-3.82;97.93
60337;BME280;46978;50.288;28.624;2023-01-28T01:53:47;99439.69;;;-3.82;98.04
60337;BME280;46978;50.288;28.624;2023-01-28T01:54:51;99435.47;;;-3.81;98.04
60337;BME280;46978;50.288;28.624;2023-01-28T01:55:59;99437.15;;;-3.82;97.91
60337;BME280;46978;50.288;28.624;2023-01-28T01:57:00;99431.22;;;-3.82;97.99
60337;BME280;46978;50.288;28.624;2023-01-28T01:58:10;99435.47;;;-3.81;98.11
60337;BME280;46978;50.288;28.624;2023-01-28T01:59:11;99438.95;;;-3.79;98.19
60337;BME280;46978;50.288;28.624;2023-01-28T02:00:15;99432.20;;;-3.79;97.88
60337;BME280;46978;50.288;28.624;2023-01-28T02:01:19;99438.00;;;-3.81;97.72
60337;BME280;46978;50.288;28.624;2023-01-28T02:02:23;99430.52;;;-3.78;97.95
60337;BME280;46978;50.288;28.624;2023-01-28T02:03:32;99432.27;;;-3.77;98.01
60337;BME280;46978;50.288;28.624;2023-01-28T02:04:36;99432.33;;;-3.75;98.07
60337;BME280;46978;50.288;28.624;2023-01-28T02:05:38;99433.12;;;-3.76;98.03
60337;BME280;46978;50.288;28.624;2023-01-28T02:06:41;99433.12;;;-3.76;98.05
60337;BME280;46978;50.288;28.624;2023-01-28T02:07:44;99434.00;;;-3.76;97.94
60337;BME280;46978;50.288;28.624;2023-01-28T02:08:46;99432.33;;;-3.75;98.07
60337;BME280;46978;50.288;28.624;2023-01-28T02:09:48;99434.06;;;-3.74;98.13
60337;BME280;46978;50.288;28.624;2023-01-28T02:11:01;99434.06;;;-3.74;98.04
60337;BME280;46978;50.288;28.624;2023-01-28T02:13:13;99434.06;;;-3.74;98.12
60337;BME280;46978;50.288;28.624;2023-01-28T02:14:17;99435.78;;;-3.73;98.09
60337;BME280;46978;50.288;28.624;2023-01-28T02:15:21;99430.64;;;-3.75;98.08
60337;BME280;46978;50.288;28.624;2023-01-28T02:16:24;99434.00;;;-3.76;98.09
60337;BME280;46978;50.288;28.624;2023-01-28T02:17:27;99432.33;;;-3.75;98.18
60337;BME280;46978;50.288;28.624;2023-01-28T02:18:31;99433.12;;;-3.76;98.23
60337;BME280;46978;50.288;28.624;2023-01-28T02:19:41;99436.42;;;-3.79;98.36
60337;BME280;46978;50.288;28.624;2023-01-28T02:21:07;99436.36;;;-3.81;98.63
60337;BME280;46978;50.288;28.624;2023-01-28T02:27:57;99454.89;;;-3.82;99.09
60337;BME280;46978;50.288;28.624;2023-01-28T02:28:51;99451.44;;;-3.84;99.11
60337;BME280;46978;50.288;28.624;2023-01-28T02:31:26;99446.44;;;-3.82;99.17
60337;BME280;46978;50.288;28.624;2023-01-28T02:32:50;99448.97;;;-3.82;99.15
60337;BME280;46978;50.288;28.624;2023-01-28T02:34:15;99446.38;;;-3.84;99.19
60337;BME280;46978;50.288;28.624;2023-01-28T02:37:54;99442.83;;;-3.87;99.55
60337;BME280;46978;50.288;28.624;2023-01-28T02:39:00;99443.65;;;-3.88;99.64
60337;BME280;46978;50.288;28.624;2023-01-28T02:40:09;99444.50;;;-3.88;99.69
60337;BME280;46978;50.288;28.624;2023-01-28T02:41:16;99449.52;;;-3.89;99.69
60337;BME280;46978;50.288;28.624;2023-01-28T02:42:29;99449.52;;;-3.89;99.82
60337;BME280;46978;50.288;28.624;2023-01-28T02:43:40;99443.52;;;-3.91;99.94
60337;BME280;46978;50.288;28.624;2023-01-28T02:44:41;99448.59;;;-3.91;99.90
60337;BME280;46978;50.288;28.624;2023-01-28T02:45:43;99441.78;;;-3.92;99.97
60337;BME280;46978;50.288;28.624;2023-01-28T02:46:46;99446.06;;;-3.91;99.91
60337;BME280;46978;50.288;28.624;2023-01-28T02:47:47;99448.66;;;-3.90;99.90
60337;BME280;46978;50.288;28.624;2023-01-28T02:48:49;99445.30;;;-3.89;99.87
60337;BME280;46978;50.288;28.624;2023-01-28T02:49:52;99452.11;;;-3.88;99.80
60337;BME280;46978;50.288;28.624;2023-01-28T02:51:06;99447.04;;;-3.88;99.75
60337;BME280;46978;50.288;28.624;2023-01-28T02:53:56;99442.70;;;-3.90;100.00
60337;BME280;46978;50.288;28.624;2023-01-28T02:55:09;99446.00;;;-3.93;100.00
60337;BME280;46978;50.288;28.624;2023-01-28T02:56:31;99452.69;;;-3.95;100.00
60337;BME280;46978;50.288;28.624;2023-01-28T02:57:53;99448.47;;;-3.94;100.00
60337;BME280;46978;50.288;28.624;2023-01-28T03:00:33;99451.86;;;-3.94;100.00
60337;BME280;46978;50.288;28.624;2023-01-28T03:01:17;99451.00;;;-3.94;100.00
60337;BME280;46978;50.288;28.624;2023-01-28T03:02:26;99449.26;;;-3.96;100.00
60337;BME280;46978;50.288;28.624;2023-01-28T03:06:00;99453.28;;;-4.01;100.00
60337;BME280;46978;50.288;28.624;2023-01-28T03:07:05;99448.16;;;-4.02;100.00
60337;BME280;46978;50.288;28.624;2023-01-28T03:08:09;99451.48;;;-4.03;100.00
60337;BME280;46978;50.288;28.624;2023-01-28T03:09:13;99440.36;;;-4.07;100.00
60337;BME280;46978;50.288;28.624;2023-01-28T03:10:19;99441.91;;;-4.10;100.00
60337;BME280;46978;50.288;28.624;2023-01-28T03:11:21;99440.89;;;-4.14;100.00
60337;BME280;46978;50.288;28.624;2023-01-28T03:12:26;99437.31;;;-4.19;100.00
60337;BME280;46978;50.288;28.624;2023-01-28T03:13:29;99432.91;;;-4.23;100.00
60337;BME280;46978;50.288;28.624;2023-01-28T03:14:32;99439.52;;;-4.27;100.00
60337;BME280;46978;50.288;28.624;2023-01-28T03:15:40;99435.94;;;-4.32;100.00
60337;BME280;46978;50.288;28.624;2023-01-28T03:16:40;99433.28;;;-4.35;100.00
60337;BME280;46978;50.288;28.624;2023-01-28T03:17:48;99433.08;;;-4.40;100.00
60337;BME280;46978;50.288;28.624;2023-01-28T03:18:51;99427.00;;;-4.43;100.00
60337;BME280;46978;50.288;28.624;2023-01-28T03:19:53;99431.94;;;-4.46;100.00
60337;BME280;46978;50.288;28.624;2023-01-28T03:22:17;99422.36;;;-4.54;100.00
60337;BME280;46978;50.288;28.624;2023-01-28T03:23:22;99424.76;;;-4.57;100.00
60337;BME280;46978;50.288;28.624;2023-01-28T03:25:30;99425.28;;;-4.64;100.00
60337;BME280;46978;50.288;28.624;2023-01-28T03:26:37;99420.88;;;-4.68;100.00
60337;BME280;46978;50.288;28.624;2023-01-28T03:27:53;99425.02;;;-4.70;100.00
60337;BME280;46978;50.288;28.624;2023-01-28T03:28:56;99418.96;;;-4.74;100.00
60337;BME280;46978;50.288;28.624;2023-01-28T03:30:06;99423.89;;;-4.77;100.00
60337;BME280;46978;50.288;28.624;2023-01-28T03:31:10;99431.42;;;-4.78;100.00
60337;BME280;46978;50.288;28.624;2023-01-28T03:32:13;99427.86;;;-4.82;100.00
60337;BME280;46978;50.288;28.624;2023-01-28T03:33:15;99422.67;;;-4.85;100.00
60337;BME280;46978;50.288;28.624;2023-01-28T03:34:19;99415.83;;;-4.88;100.00
60337;BME280;46978;50.288;28.624;2023-01-28T03:35:23;99419.08;;;-4.90;100.00
60337;BME280;46978;50.288;28.624;2023-01-28T03:36:27;99419.86;;;-4.91;100.00
60337;BME280;46978;50.288;28.624;2023-01-28T03:37:31;99420.55;;;-4.95;100.00
60337;BME280;46978;50.288;28.624;2023-01-28T03:40:05;99418.59;;;-5.01;100.00
60337;BME280;46978;50.288;28.624;2023-01-28T03:41:09;99420.20;;;-5.03;100.00
60337;BME280;46978;50.288;28.624;2023-01-28T03:42:13;99417.61;;;-5.05;100.00
60337;BME280;46978;50.288;28.624;2023-01-28T03:43:15;99416.65;;;-5.07;100.00
60337;BME280;46978;50.288;28.624;2023-01-28T03:44:16;99419.04;;;-5.10;100.00
60337;BME280;46978;50.288;28.624;2023-01-28T03:45:18;99417.33;;;-5.11;100.00
60337;BME280;46978;50.288;28.624;2023-01-28T03:46:21;99415.58;;;-5.12;100.00
60337;BME280;46978;50.288;28.624;2023-01-28T03:47:25;99410.39;;;-5.15;100.00
60337;BME280;46978;50.288;28.624;2023-01-28T03:48:27;99422.11;;;-5.17;100.00
60337;BME280;46978;50.288;28.624;2023-01-28T03:49:29;99420.37;;;-5.18;100.00
60337;BME280;46978;50.288;28.624;2023-01-28T03:50:31;99426.14;;;-5.20;100.00
60337;BME280;46978;50.288;28.624;2023-01-28T03:51:33;99428.60;;;-5.22;100.00
60337;BME280;46978;50.288;28.624;2023-01-28T03:52:34;99427.75;;;-5.23;100.00
60337;BME280;46978;50.288;28.624;2023-01-28T03:53:37;99425.93;;;-5.25;100.00
60337;BME280;46978;50.288;28.624;2023-01-28T03:54:39;99429.28;;;-5.26;100.00
60337;BME280;46978;50.288;28.624;2023-01-28T03:55:41;99432.59;;;-5.27;100.00
60337;BME280;46978;50.288;28.624;2023-01-28T03:56:43;99429.14;;;-5.29;100.00
60337;BME280;46978;50.288;28.624;2023-01-28T03:57:45;99432.45;;;-5.30;100.00
60337;BME280;46978;50.288;28.624;2023-01-28T03:58:46;99434.12;;;-5.31;100.00
60337;BME280;46978;50.288;28.624;2023-01-28T03:59:48;99443.31;;;-5.33;100.00
60337;BME280;46978;50.288;28.624;2023-01-28T04:00:50;99437.30;;;-5.35;100.00
60337;BME280;46978;50.288;28.624;2023-01-28T04:01:52;99443.17;;;-5.36;100.00
60337;BME280;46978;50.288;28.624;2023-01-28T04:02:53;99443.95;;;-5.37;100.00
60337;BME280;46978;50.288;28.624;2023-01-28T04:03:55;99446.41;;;-5.38;100.00
60337;BME280;46978;50.288;28.624;2023-01-28T04:04:57;99449.80;;;-5.38;100.00
60337;BME280;46978;50.288;28.624;2023-01-28T04:06:04;99441.36;;;-5.38;100.00
60337;BME280;46978;50.288;28.624;2023-01-28T04:07:07;99447.13;;;-5.41;100.00
60337;BME280;46978;50.288;28.624;2023-01-28T04:08:09;99449.66;;;-5.41;100.00
60337;BME280;46978;50.288;28.624;2023-01-28T04:09:11;99442.89;;;-5.42;100.00
60337;BME280;46978;50.288;28.624;2023-01-28T04:10:13;99445.41;;;-5.42;100.00
60337;BME280;46978;50.288;28.624;2023-01-28T04:11:14;99447.05;;;-5.43;100.00
60337;BME280;46978;50.288;28.624;2023-01-28T04:12:16;99444.53;;;-5.43;100.00
60337;BME280;46978;50.288;28.624;2023-01-28T04:13:18;99452.05;;;-5.44;100.00
60337;BME280;46978;50.288;28.624;2023-01-28T04:14:20;99456.31;;;-5.43;100.00
60337;BME280;46978;50.288;28.624;2023-01-28T04:15:22;99452.86;;;-5.45;100.00
60337;BME280;46978;50.288;28.624;2023-01-28T04:16:23;99450.33;;;-5.45;100.00
60337;BME280;46978;50.288;28.624;2023-01-28T04:17:25;99457.02;;;-5.46;100.00
60337;BME280;46978;50.288;28.624;2023-01-28T04:18:26;99456.09;;;-5.48;100.00
60337;BME280;46978;50.288;28.624;2023-01-28T04:19:28;99456.09;;;-5.48;100.00
60337;BME280;46978;50.288;28.624;2023-01-28T04:20:30;99455.24;;;-5.48;100.00
60337;BME280;46978;50.288;28.624;2023-01-28T04:21:32;99456.02;;;-5.49;100.00
60337;BME280;46978;50.288;28.624;2023-01-28T04:22:33;99451.04;;;-5.48;100.00
60337;BME280;46978;50.288;28.624;2023-01-28T04:23:35;99447.66;;;-5.48;100.00
60337;BME280;46978;50.288;28.624;2023-01-28T04:24:37;99457.77;;;-5.48;100.00
60337;BME280;46978;50.288;28.624;2023-01-28T04:25:38;99454.42;;;-5.47;100.00
60337;BME280;46978;50.288;28.624;2023-01-28T04:26:40;99450.97;;;-5.49;100.00
60337;BME280;46978;50.288;28.624;2023-01-28T04:27:42;99452.71;;;-5.48;100.00
60337;BME280;46978;50.288;28.624;2023-01-28T04:28:44;99452.71;;;-5.48;100.00
60337;BME280;46978;50.288;28.624;2023-01-28T04:29:45;99453.50;;;-5.49;100.00
60337;BME280;46978;50.288;28.624;2023-01-28T04:30:47;99451.75;;;-5.50;100.00
60337;BME280;46978;50.288;28.624;2023-01-28T04:31:49;99455.17;;;-5.50;100.00
60337;BME280;46978;50.288;28.624;2023-01-28T04:32:51;99450.89;;;-5.51;100.00
60337;BME280;46978;50.288;28.624;2023-01-28T04:33:52;99460.16;;;-5.51;100.00
60337;BME280;46978;50.288;28.624;2023-01-28T04:34:54;99460.08;;;-5.53;100.00
60337;BME280;46978;50.288;28.624;2023-01-28T04:35:56;99461.72;;;-5.53;100.00
60337;BME280;46978;50.288;28.624;2023-01-28T04:36:57;99459.12;;;-5.55;100.00
60337;BME280;46978;50.288;28.624;2023-01-28T04:37:59;99458.27;;;-5.55;100.00
60337;BME280;46978;50.288;28.624;2023-01-28T04:39:01;99459.86;;;-5.57;100.00
60337;BME280;46978;50.288;28.624;2023-01-28T04:40:03;99454.66;;;-5.61;100.00
60337;BME280;46978;50.288;28.624;2023-01-28T04:41:05;99458.83;;;-5.61;100.00
60337;BME280;46978;50.288;28.624;2023-01-28T04:42:06;99460.50;;;-5.62;100.00
60337;BME280;46978;50.288;28.624;2023-01-28T04:43:08;99457.89;;;-5.63;100.00
60337;BME280;46978;50.288;28.624;2023-01-28T04:44:10;99452.77;;;-5.65;100.00
60337;BME280;46978;50.288;28.624;2023-01-28T04:45:11;99458.61;;;-5.66;100.00
60337;BME280;46978;50.288;28.624;2023-01-28T04:46:14;99456.08;;;-5.66;100.00
60337;BME280;46978;50.288;28.624;2023-01-28T04:47:16;99450.95;;;-5.67;100.00
60337;BME280;46978;50.288;28.624;2023-01-28T04:48:18;99454.22;;;-5.70;100.00
60337;BME280;46978;50.288;28.624;2023-01-28T04:49:20;99461.80;;;-5.70;100.00
60337;BME280;46978;50.288;28.624;2023-01-28T04:50:22;99458.31;;;-5.72;100.00
60337;BME280;46978;50.288;28.624;2023-01-28T04:51:23;99465.82;;;-5.73;100.00
60337;BME280;46978;50.288;28.624;2023-01-28T04:52:25;99463.30;;;-5.73;100.00
60337;BME280;46978;50.288;28.624;2023-01-28T04:53:26;99461.58;;;-5.74;100.00
60337;BME280;46978;50.288;28.624;2023-01-28T04:54:28;99454.78;;;-5.76;100.00
60337;BME280;46978;50.288;28.624;2023-01-28T04:55:30;99462.22;;;-5.79;100.00
60337;BME280;46978;50.288;28.624;2023-01-28T04:56:32;99461.36;;;-5.79;100.00
60337;BME280;46978;50.288;28.624;2023-01-28T04:57:34;99468.86;;;-5.81;100.00
60337;BME280;46978;50.288;28.624;2023-01-28T04:58:35;99471.39;;;-5.81;100.00
60337;BME280;46978;50.288;28.624;2023-01-28T04:59:37;99463.73;;;-5.82;100.00
60337;BME280;46978;50.288;28.624;2023-01-28T05:00:39;99472.09;;;-5.83;100.00
60337;BME280;46978;50.288;28.624;2023-01-28T05:01:40;99465.30;;;-5.84;100.00
60337;BME280;46978;50.288;28.624;2023-01-28T05:02:42;99466.89;;;-5.86;100.00
60337;BME280;46978;50.288;28.624;2023-01-28T05:03:44;99474.40;;;-5.88;100.00
60337;BME280;46978;50.288;28.624;2023-01-28T05:04:45;99471.88;;;-5.88;100.00
60337;BME280;46978;50.288;28.624;2023-01-28T05:05:47;99477.70;;;-5.89;100.00
60337;BME280;46978;50.288;28.624;2023-01-28T05:06:49;99469.27;;;-5.89;100.00
60337;BME280;46978;50.288;28.624;2023-01-28T05:07:52;99467.45;;;-5.92;100.00
60337;BME280;46978;50.288;28.624;2023-01-28T05:08:54;99472.43;;;-5.94;100.00
60337;BME280;46978;50.288;28.624;2023-01-28T05:09:56;99475.77;;;-5.95;100.00
60337;BME280;46978;50.288;28.624;2023-01-28T05:10:58;99479.03;;;-5.97;100.00
60337;BME280;46978;50.288;28.624;2023-01-28T05:11:59;99473.91;;;-5.99;100.00
60337;BME280;46978;50.288;28.624;2023-01-28T05:13:01;99476.36;;;-6.00;100.00
60337;BME280;46978;50.288;28.624;2023-01-28T05:14:03;99475.50;;;-6.01;100.00
60337;BME280;46978;50.288;28.624;2023-01-28T05:15:06;99477.88;;;-6.04;100.00
60337;BME280;46978;50.288;28.624;2023-01-28T05:16:09;99477.88;;;-6.04;100.00
60337;BME280;46978;50.288;28.624;2023-01-28T05:17:11;99478.73;;;-6.03;100.00
60337;BME280;46978;50.288;28.624;2023-01-28T05:18:12;99471.93;;;-6.04;100.00
60337;BME280;46978;50.288;28.624;2023-01-28T05:19:14;99477.06;;;-6.03;100.00
60337;BME280;46978;50.288;28.624;2023-01-28T05:20:16;99467.77;;;-6.04;100.00
60337;BME280;46978;50.288;28.624;2023-01-28T05:21:38;99466.87;;;-6.04;100.00
60337;BME280;46978;50.288;28.624;2023-01-28T05:22:40;99467.69;;;-6.05;100.00
60337;BME280;46978;50.288;28.624;2023-01-28T05:23:43;99467.62;;;-6.07;100.00
60337;BME280;46978;50.288;28.624;2023-01-28T05:24:45;99468.39;;;-6.08;100.00
60337;BME280;46978;50.288;28.624;2023-01-28T05:25:46;99468.31;;;-6.09;100.00
60337;BME280;46978;50.288;28.624;2023-01-28T05:26:48;99468.24;;;-6.11;100.00
60337;BME280;46978;50.288;28.624;2023-01-28T05:27:50;99469.84;;;-6.13;100.00
60337;BME280;46978;50.288;28.624;2023-01-28T05:28:52;99477.34;;;-6.15;100.00
60337;BME280;46978;50.288;28.624;2023-01-28T05:29:54;99477.34;;;-6.15;100.00
60337;BME280;46978;50.288;28.624;2023-01-28T05:30:56;99465.56;;;-6.14;100.00
60337;BME280;46978;50.288;28.624;2023-01-28T05:31:58;99478.97;;;-6.15;100.00
60337;BME280;46978;50.288;28.624;2023-01-28T05:32:59;99470.54;;;-6.16;100.00
60337;BME280;46978;50.288;28.624;2023-01-28T05:34:21;99471.31;;;-6.17;100.00
60337;BME280;46978;50.288;28.624;2023-01-28T05:35:22;99475.52;;;-6.17;100.00
60337;BME280;46978;50.288;28.624;2023-01-28T05:36:24;99479.70;;;-6.18;100.00
60337;BME280;46978;50.288;28.624;2023-01-28T05:37:26;99478.73;;;-6.20;100.00
60337;BME280;46978;50.288;28.624;2023-01-28T05:38:28;99475.36;;;-6.20;100.00
60337;BME280;46978;50.288;28.624;2023-01-28T05:39:29;99478.66;;;-6.21;100.00
60337;BME280;46978;50.288;28.624;2023-01-28T05:40:31;99479.48;;;-6.22;100.00
60337;BME280;46978;50.288;28.624;2023-01-28T05:41:53;99482.00;;;-6.22;100.00
60337;BME280;46978;50.288;28.624;2023-01-28T05:42:54;99474.42;;;-6.22;100.00
60337;BME280;46978;50.288;28.624;2023-01-28T05:43:56;99484.45;;;-6.24;100.00
60337;BME280;46978;50.288;28.624;2023-01-28T05:44:57;99480.17;;;-6.25;100.00
60337;BME280;46978;50.288;28.624;2023-01-28T05:45:59;99481.84;;;-6.25;100.00
60337;BME280;46978;50.288;28.624;2023-01-28T05:47:01;99480.10;;;-6.26;100.00
60337;BME280;46978;50.288;28.624;2023-01-28T05:48:03;99472.52;;;-6.26;100.00
60337;BME280;46978;50.288;28.624;2023-01-28T05:49:05;99482.63;;;-6.26;100.00
60337;BME280;46978;50.288;28.624;2023-01-28T05:50:08;99482.63;;;-6.26;100.00
60337;BME280;46978;50.288;28.624;2023-01-28T05:51:10;99477.58;;;-6.26;100.00
60337;BME280;46978;50.288;28.624;2023-01-28T05:52:12;99474.19;;;-6.27;100.00